Time;durP1;ratioP1;P1;durP2;ratioP2;P2;SDS_P1;SDS_P2;PMS_P1;PMS_P2;Temp;Humidity;BMP_temperature;BMP_pressure;BME280_temperature;BME280_humidity;BME280_pressure;Samples;Min_cycle;Max_cycle;Signal;HPM_P1;HPM_P2
2023/10/04 00:02:09;;;;;;;5.45;1.50;;;13.70;99.90;;;;;;5037155;28;20033;-80
2023/10/04 00:04:35;;;;;;;2.65;1.38;;;13.70;99.90;;;;;;5036464;28;20394;-80
2023/10/04 00:07:04;;;;;;;3.90;1.80;;;13.70;99.90;;;;;;5019983;28;20029;-81
2023/10/04 00:09:33;;;;;;;4.20;1.60;;;13.70;99.90;;;;;;5038771;28;20029;-80
2023/10/04 00:12:02;;;;;;;3.20;1.60;;;13.70;99.90;;;;;;5021886;28;20022;-80
2023/10/04 00:14:27;;;;;;;3.95;1.60;;;13.60;99.90;;;;;;5019848;28;20475;-80
2023/10/04 00:16:59;;;;;;;5.10;1.90;;;13.50;99.90;;;;;;5023123;28;20083;-80
2023/10/04 00:19:25;;;;;;;6.32;1.90;;;13.50;99.90;;;;;;5030076;28;20463;-81
2023/10/04 00:21:51;;;;;;;3.13;1.80;;;13.50;99.90;;;;;;5002996;28;20088;-80
2023/10/04 00:24:17;;;;;;;4.03;1.50;;;13.50;99.90;;;;;;5019447;28;20573;-80
2023/10/04 00:26:43;;;;;;;3.38;1.67;;;13.50;99.90;;;;;;4995629;28;20041;-79
2023/10/04 00:29:10;;;;;;;3.45;1.45;;;13.50;99.90;;;;;;5038232;28;20021;-80
2023/10/04 00:31:36;;;;;;;4.15;1.55;;;13.50;99.90;;;;;;5004716;28;20056;-80
2023/10/04 00:34:03;;;;;;;4.93;1.48;;;13.50;99.90;;;;;;5038560;28;20025;-80
2023/10/04 00:36:29;;;;;;;4.57;1.70;;;13.50;99.90;;;;;;5039028;28;20375;-80
2023/10/04 00:38:55;;;;;;;4.32;1.55;;;13.60;99.90;;;;;;5034343;28;20048;-80
2023/10/04 00:41:22;;;;;;;5.18;1.70;;;13.50;99.90;;;;;;5023547;28;20018;-80
2023/10/04 00:43:50;;;;;;;3.92;1.73;;;13.50;99.90;;;;;;5038895;28;20037;-80
2023/10/04 00:46:19;;;;;;;3.05;1.50;;;13.50;99.90;;;;;;5038502;28;20025;-80
2023/10/04 00:48:49;;;;;;;3.42;1.50;;;13.50;99.90;;;;;;5028750;28;20030;-80
2023/10/04 00:51:16;;;;;;;3.92;1.50;;;13.40;99.90;;;;;;5020486;28;20048;-80
2023/10/04 00:53:44;;;;;;;2.80;1.30;;;13.40;99.90;;;;;;5016038;28;20037;-80
2023/10/04 00:56:10;;;;;;;3.83;1.80;;;13.30;99.90;;;;;;5021817;28;20026;-80
2023/10/04 00:58:36;;;;;;;2.88;1.30;;;13.30;99.90;;;;;;5032467;28;20026;-80
2023/10/04 01:01:04;;;;;;;3.83;1.63;;;13.30;99.90;;;;;;5028063;28;20045;-80
2023/10/04 01:03:32;;;;;;;4.55;1.80;;;13.20;99.90;;;;;;5032536;28;20026;-80
2023/10/04 01:06:00;;;;;;;3.42;1.50;;;13.10;99.90;;;;;;5038806;28;20053;-80
2023/10/04 01:08:28;;;;;;;3.20;1.58;;;13.00;99.90;;;;;;5034860;28;20497;-80
2023/10/04 01:10:54;;;;;;;4.70;2.22;;;12.90;99.90;;;;;;5037161;28;20079;-80
2023/10/04 01:13:22;;;;;;;3.97;1.63;;;12.70;99.90;;;;;;5018783;28;20040;-80
2023/10/04 01:15:49;;;;;;;4.35;1.48;;;12.60;99.90;;;;;;5031810;28;20057;-80
2023/10/04 01:18:16;;;;;;;4.40;1.73;;;12.60;99.90;;;;;;5020207;28;20397;-80
2023/10/04 01:20:42;;;;;;;3.80;1.70;;;12.60;99.90;;;;;;5020399;28;20095;-80
2023/10/04 01:23:12;;;;;;;5.65;1.60;;;12.60;99.90;;;;;;5032339;28;20486;-80
2023/10/04 01:25:42;;;;;;;4.85;1.65;;;12.70;99.90;;;;;;5032706;28;20605;-80
2023/10/04 01:28:13;;;;;;;3.08;1.63;;;12.70;99.90;;;;;;5030950;28;20049;-80
2023/10/04 01:30:47;;;;;;;3.53;1.65;;;12.80;99.90;;;;;;5011926;28;20048;-80
2023/10/04 01:33:18;;;;;;;4.38;1.73;;;12.90;99.90;;;;;;5036853;28;20032;-80
2023/10/04 01:35:49;;;;;;;4.57;1.80;;;12.90;99.90;;;;;;5034655;28;20029;-80
2023/10/04 01:38:15;;;;;;;;;;;12.90;99.90;;;;;;5033157;28;20079;-80
2023/10/04 01:40:43;;;;;;;5.00;2.05;;;12.90;99.90;;;;;;5029154;28;19988;-80
2023/10/04 01:43:15;;;;;;;4.95;1.75;;;12.90;99.90;;;;;;5024075;28;20034;-80
2023/10/04 01:45:59;;;;;;;4.60;2.17;;;12.90;99.90;;;;;;5012392;28;20065;-80
2023/10/04 01:48:36;;;;;;;3.10;1.65;;;12.80;99.90;;;;;;5023534;28;20034;-80
2023/10/04 01:51:06;;;;;;;4.25;1.40;;;12.80;99.90;;;;;;5024179;28;20033;-80
2023/10/04 01:53:35;;;;;;;5.00;1.77;;;12.80;99.90;;;;;;5038956;28;20014;-80
2023/10/04 01:56:06;;;;;;;3.78;1.70;;;12.80;99.90;;;;;;5026443;28;20482;-79
2023/10/04 01:58:31;;;;;;;3.65;1.70;;;12.80;99.90;;;;;;5025159;28;20481;-79
2023/10/04 02:00:57;;;;;;;4.15;1.88;;;12.90;99.90;;;;;;5018269;28;20029;-79
2023/10/04 02:03:24;;;;;;;3.30;1.60;;;12.90;99.90;;;;;;5035674;28;20038;-79
2023/10/04 02:05:52;;;;;;;5.03;1.42;;;12.90;99.90;;;;;;5035083;28;20033;-79
2023/10/04 02:08:18;;;;;;;5.75;1.77;;;12.90;99.90;;;;;;5041074;28;20099;-80
2023/10/04 02:10:47;;;;;;;4.47;1.75;;;12.90;99.90;;;;;;5020526;28;20065;-77
2023/10/04 02:13:16;;;;;;;4.85;1.83;;;12.90;99.90;;;;;;5031834;28;20390;-78
2023/10/04 02:15:44;;;;;;;3.35;1.40;;;12.90;99.90;;;;;;5004165;28;20040;-78
2023/10/04 02:18:10;;;;;;;3.28;1.50;;;12.90;99.90;;;;;;5036793;28;20076;-78
2023/10/04 02:20:36;;;;;;;6.68;1.70;;;12.90;99.90;;;;;;5033863;28;20498;-78
2023/10/04 02:23:04;;;;;;;3.95;1.85;;;12.90;99.90;;;;;;5038068;28;20076;-78
2023/10/04 02:25:29;;;;;;;3.75;1.63;;;12.90;99.90;;;;;;5024508;28;20030;-78
2023/10/04 02:28:01;;;;;;;3.63;1.67;;;12.90;99.90;;;;;;5042499;28;20093;-78
2023/10/04 02:30:27;;;;;;;4.38;1.98;;;12.80;99.90;;;;;;5028197;28;20087;-79
2023/10/04 02:32:53;;;;;;;3.75;1.88;;;12.70;99.90;;;;;;5038060;28;20433;-78
2023/10/04 02:35:27;;;;;;;4.72;1.75;;;12.60;99.90;;;;;;5019530;28;20021;-78
2023/10/04 02:37:54;;;;;;;4.28;1.80;;;12.50;99.90;;;;;;5020440;28;20113;-78
2023/10/04 02:40:27;;;;;;;4.88;1.98;;;12.40;99.90;;;;;;5036797;28;20112;-77
2023/10/04 02:42:54;;;;;;;4.25;1.63;;;12.40;99.90;;;;;;5026381;28;20505;-78
2023/10/04 02:45:20;;;;;;;3.55;1.70;;;12.40;99.90;;;;;;5027775;28;20033;-78
2023/10/04 02:47:48;;;;;;;5.57;1.73;;;12.40;99.90;;;;;;5018640;28;20021;-78
2023/10/04 02:50:15;;;;;;;4.60;1.90;;;12.40;99.90;;;;;;5032210;28;20034;-78
2023/10/04 02:52:41;;;;;;;6.22;1.48;;;12.40;99.90;;;;;;5029222;28;20029;-78
2023/10/04 02:55:07;;;;;;;4.05;1.95;;;12.40;99.90;;;;;;5018354;28;20098;-78
2023/10/04 02:57:32;;;;;;;3.50;1.40;;;12.40;99.90;;;;;;5017707;28;20034;-78
2023/10/04 03:00:01;;;;;;;3.58;1.70;;;12.40;99.90;;;;;;5018031;28;20427;-78
2023/10/04 03:02:26;;;;;;;3.00;1.70;;;12.40;99.90;;;;;;5024759;28;20134;-77
2023/10/04 03:04:52;;;;;;;3.92;1.88;;;12.30;99.90;;;;;;5037188;28;20030;-78
2023/10/04 03:07:19;;;;;;;4.35;1.70;;;12.20;99.90;;;;;;5001756;28;20122;-78
2023/10/04 03:09:45;;;;;;;3.80;1.83;;;12.20;99.90;;;;;;5017642;28;20113;-78
2023/10/04 03:12:10;;;;;;;3.58;1.48;;;12.10;99.90;;;;;;5017292;28;20077;-78
2023/10/04 03:14:36;;;;;;;5.07;2.10;;;12.20;99.90;;;;;;5016401;28;20034;-79
2023/10/04 03:17:02;;;;;;;5.03;2.40;;;12.10;99.90;;;;;;4999421;28;20057;-78
2023/10/04 03:19:28;;;;;;;4.85;2.10;;;12.10;99.90;;;;;;5017051;28;20026;-78
2023/10/04 03:21:54;;;;;;;7.65;2.10;;;12.00;99.90;;;;;;4999539;28;20026;-78
2023/10/04 03:24:19;;;;;;;4.07;2.10;;;12.00;99.90;;;;;;5028754;28;20048;-78
2023/10/04 03:26:45;;;;;;;4.22;2.03;;;11.90;99.90;;;;;;5037013;28;20022;-78
2023/10/04 03:29:11;;;;;;;3.63;1.63;;;11.90;99.90;;;;;;5037319;28;20025;-78
2023/10/04 03:31:39;;;;;;;3.70;1.90;;;11.90;99.90;;;;;;5018620;28;20034;-78
2023/10/04 03:34:07;;;;;;;2.67;1.35;;;11.90;99.90;;;;;;5036718;28;20037;-78
2023/10/04 03:36:36;;;;;;;2.97;1.55;;;11.90;99.90;;;;;;5037021;28;20042;-78
2023/10/04 03:39:03;;;;;;;4.03;1.70;;;11.90;99.90;;;;;;5035660;28;20079;-78
2023/10/04 03:41:29;;;;;;;3.38;1.70;;;11.90;99.90;;;;;;5018977;28;20028;-78
2023/10/04 03:43:55;;;;;;;4.18;1.50;;;11.80;99.90;;;;;;5017004;28;20030;-78
2023/10/04 03:46:20;;;;;;;3.85;1.60;;;11.80;99.90;;;;;;5024144;28;20034;-78
2023/10/04 03:48:47;;;;;;;3.58;1.60;;;11.80;99.90;;;;;;5037376;28;20037;-78
2023/10/04 03:51:15;;;;;;;4.22;1.92;;;11.80;99.90;;;;;;5036577;28;20424;-77
2023/10/04 03:53:43;;;;;;;4.10;2.08;;;11.70;99.90;;;;;;5036796;28;20032;-78
2023/10/04 03:56:12;;;;;;;4.05;2.17;;;11.70;99.90;;;;;;5036461;28;20030;-78
2023/10/04 03:58:38;;;;;;;6.38;2.55;;;11.50;99.90;;;;;;5035966;28;20053;-78
2023/10/04 04:01:05;;;;;;;5.63;2.35;;;11.40;99.90;;;;;;5035441;28;20076;-78
2023/10/04 04:03:30;;;;;;;5.70;2.03;;;11.40;99.90;;;;;;5032125;28;20359;-78
2023/10/04 04:05:56;;;;;;;5.30;2.17;;;11.30;99.90;;;;;;5029253;28;20039;-78
2023/10/04 04:08:22;;;;;;;4.65;2.08;;;11.20;99.90;;;;;;5036453;28;20449;-77
2023/10/04 04:10:50;;;;;;;4.93;2.00;;;11.10;99.90;;;;;;5018446;28;20075;-78
2023/10/04 04:13:15;;;;;;;3.50;1.77;;;11.10;99.90;;;;;;5026861;28;20509;-77
2023/10/04 04:15:41;;;;;;;3.88;1.77;;;11.10;99.90;;;;;;5017630;28;20022;-78
2023/10/04 04:18:15;;;;;;;3.22;1.65;;;11.20;99.90;;;;;;5020047;28;20478;-78
2023/10/04 04:20:41;;;;;;;4.68;1.90;;;11.20;99.90;;;;;;5035706;28;20510;-78
2023/10/04 04:23:08;;;;;;;7.35;1.95;;;11.30;99.90;;;;;;5035849;28;20040;-79
2023/10/04 04:25:34;;;;;;;6.72;2.05;;;11.30;99.90;;;;;;5035446;28;20029;-78
2023/10/04 04:28:02;;;;;;;3.75;1.77;;;11.30;99.90;;;;;;5035151;28;20036;-78
2023/10/04 04:30:31;;;;;;;4.90;2.15;;;11.40;99.90;;;;;;5034429;28;20474;-78
2023/10/04 04:32:57;;;;;;;4.53;2.65;;;11.40;99.90;;;;;;5035386;28;20467;-77
2023/10/04 04:38:22;;;;;;;5.03;2.40;;;11.30;99.90;;;;;;5035792;28;20489;-77
2023/10/04 04:40:50;;;;;;;8.55;3.97;;;11.30;99.90;;;;;;5034950;28;20029;-77
2023/10/04 04:45:51;;;;;;;4.68;2.70;;;11.30;99.90;;;;;;5021994;28;20037;-77
2023/10/04 04:48:24;;;;;;;6.20;2.78;;;11.30;99.90;;;;;;5032849;28;20025;-79
2023/10/04 04:50:54;;;;;;;5.63;2.70;;;11.30;99.90;;;;;;5034405;28;20034;-78
2023/10/04 04:53:24;;;;;;;6.32;2.80;;;11.30;99.90;;;;;;5033974;28;20119;-79
2023/10/04 04:55:52;;;;;;;5.90;2.63;;;11.30;99.90;;;;;;5015726;28;20068;-77
2023/10/04 04:58:18;;;;;;;5.10;2.58;;;11.40;99.90;;;;;;5029698;28;20029;-78
2023/10/04 05:00:47;;;;;;;8.18;2.28;;;11.40;99.90;;;;;;4998367;28;20034;-78
2023/10/04 05:03:13;;;;;;;4.10;1.95;;;11.30;99.90;;;;;;5009399;28;20569;-78
2023/10/04 05:05:40;;;;;;;7.00;2.72;;;11.30;99.90;;;;;;5033619;28;20108;-78
2023/10/04 05:08:06;;;;;;;5.57;2.35;;;11.30;99.90;;;;;;5033693;28;20390;-77
2023/10/04 05:10:38;;;;;;;4.18;2.35;;;11.30;99.90;;;;;;5016487;28;20052;-77
2023/10/04 05:13:08;;;;;;;4.68;2.35;;;11.20;99.90;;;;;;5000600;28;20036;-77
2023/10/04 05:15:38;;;;;;;4.45;2.05;;;11.20;99.90;;;;;;5033639;28;20478;-77
2023/10/04 05:18:05;;;;;;;5.50;2.60;;;11.10;99.90;;;;;;5034160;28;20029;-77
2023/10/04 05:20:32;;;;;;;5.22;2.50;;;11.10;99.90;;;;;;5033462;28;20026;-77
2023/10/04 05:23:01;;;;;;;5.28;2.15;;;11.10;99.90;;;;;;5034087;28;20480;-77
2023/10/04 05:25:27;;;;;;;4.07;2.20;;;11.10;99.90;;;;;;5033487;28;20040;-77
2023/10/04 05:28:01;;;;;;;4.00;1.95;;;11.10;99.90;;;;;;5015892;28;20394;-77
2023/10/04 05:30:27;;;;;;;4.13;2.13;;;11.10;99.90;;;;;;5033085;28;20053;-78
2023/10/04 05:32:53;;;;;;;4.50;2.20;;;11.10;99.90;;;;;;5033459;28;20022;-77
2023/10/04 05:35:21;;;;;;;4.85;2.65;;;11.20;99.90;;;;;;5033381;28;20044;-77
2023/10/04 05:37:47;;;;;;;4.53;2.50;;;11.30;99.90;;;;;;5014707;28;20084;-77
2023/10/04 05:40:28;;;;;;;3.15;1.80;;;11.30;99.90;;;;;;5033215;28;20029;-77
2023/10/04 05:42:54;;;;;;;4.30;2.10;;;11.30;99.90;;;;;;5033344;28;20057;-77
2023/10/04 05:45:21;;;;;;;4.65;2.50;;;11.40;99.90;;;;;;5033849;28;20367;-77
2023/10/04 05:47:50;;;;;;;6.05;2.30;;;11.40;99.90;;;;;;5033451;28;20026;-77
2023/10/04 05:50:18;;;;;;;4.40;2.40;;;11.40;99.90;;;;;;5037850;28;20056;-81
2023/10/04 05:52:45;;;;;;;4.75;2.45;;;11.40;99.90;;;;;;5038989;28;20393;-79
2023/10/04 05:55:11;;;;;;;4.15;2.30;;;11.40;99.90;;;;;;5036356;28;20026;-80
2023/10/04 05:57:36;;;;;;;6.55;2.80;;;11.40;99.90;;;;;;5037160;28;20029;-83
2023/10/04 06:00:27;;;;;;;6.15;3.13;;;11.40;99.90;;;;;;5037049;28;20036;-78
2023/10/04 06:03:06;;;;;;;5.07;2.78;;;11.40;99.90;;;;;;5036627;28;20033;-78
2023/10/04 06:05:34;;;;;;;4.30;2.10;;;11.40;99.90;;;;;;5019448;28;20375;-78
2023/10/04 06:08:11;;;;;;;4.97;2.78;;;11.40;99.90;;;;;;5034972;28;20025;-78
2023/10/04 06:10:37;;;;;;;4.35;2.60;;;11.40;99.90;;;;;;5035121;28;20116;-78
2023/10/04 06:13:07;;;;;;;4.28;2.28;;;11.40;99.90;;;;;;5018770;28;20497;-78
2023/10/04 06:15:33;;;;;;;4.78;2.63;;;11.40;99.90;;;;;;5035804;28;20104;-78
2023/10/04 06:18:00;;;;;;;5.15;2.45;;;11.40;99.90;;;;;;5035780;28;20500;-78
2023/10/04 06:20:28;;;;;;;4.70;2.25;;;11.40;99.90;;;;;;5035723;28;20029;-78
2023/10/04 06:22:59;;;;;;;5.65;2.38;;;11.40;99.90;;;;;;5018449;28;20034;-78
2023/10/04 06:25:26;;;;;;;4.85;2.65;;;11.40;99.90;;;;;;5035865;28;20057;-78
2023/10/04 06:27:54;;;;;;;6.75;2.88;;;11.40;99.90;;;;;;5036597;28;20120;-78
2023/10/04 06:30:22;;;;;;;6.13;2.47;;;11.50;99.90;;;;;;5028618;28;20052;-78
2023/10/04 06:32:49;;;;;;;7.55;2.50;;;11.50;99.90;;;;;;5026721;28;20029;-78
2023/10/04 06:35:16;;;;;;;5.30;2.40;;;11.50;99.90;;;;;;5034992;28;20051;-78
2023/10/04 06:37:41;;;;;;;4.63;2.30;;;11.50;99.90;;;;;;5035468;28;20028;-78
2023/10/04 06:40:19;;;;;;;4.28;2.03;;;11.50;99.90;;;;;;5036405;28;20049;-78
2023/10/04 06:42:47;;;;;;;5.97;2.35;;;11.60;99.90;;;;;;5036289;28;20026;-78
2023/10/04 06:45:13;;;;;;;4.45;2.17;;;11.60;99.90;;;;;;5036189;28;20033;-78
2023/10/04 06:47:46;;;;;;;5.07;2.30;;;11.60;99.90;;;;;;5035671;28;20025;-78
2023/10/04 06:50:22;;;;;;;5.82;2.15;;;11.60;99.90;;;;;;5038791;28;20025;-78
2023/10/04 06:52:50;;;;;;;4.88;2.30;;;11.70;99.90;;;;;;5021927;28;20034;-78
2023/10/04 06:55:19;;;;;;;5.45;2.55;;;11.80;99.90;;;;;;5039780;28;20029;-78
2023/10/04 06:57:46;;;;;;;4.82;2.60;;;11.80;99.90;;;;;;5039147;28;20030;-78
2023/10/04 07:00:18;;;;;;;4.95;2.28;;;11.80;99.90;;;;;;5038562;28;20040;-77
2023/10/04 07:02:49;;;;;;;4.68;2.25;;;11.80;99.90;;;;;;5038883;28;20025;-78
2023/10/04 07:05:19;;;;;;;;;;;11.90;99.90;;;;;;5039477;28;20488;-78
2023/10/04 07:07:51;;;;;;;5.00;2.40;;;11.90;99.90;;;;;;5039242;28;20301;-78
2023/10/04 07:10:20;;;;;;;4.35;2.20;;;11.90;99.90;;;;;;5021230;28;20033;-78
2023/10/04 07:12:47;;;;;;;5.78;2.15;;;11.90;99.90;;;;;;5040070;28;20025;-77
2023/10/04 07:15:14;;;;;;;6.80;2.80;;;12.00;99.90;;;;;;5038776;28;20091;-78
2023/10/04 07:17:41;;;;;;;5.00;2.45;;;12.00;99.90;;;;;;5038446;28;20025;-78
2023/10/04 07:20:13;;;;;;;5.93;2.38;;;12.10;99.90;;;;;;5038520;28;20136;-78
2023/10/04 07:22:42;;;;;;;5.95;2.50;;;12.10;99.90;;;;;;5039318;28;20033;-78
2023/10/04 07:25:08;;;;;;;4.45;2.20;;;12.20;99.90;;;;;;5038866;28;20089;-78
2023/10/04 07:27:34;;;;;;;5.03;2.00;;;12.20;99.90;;;;;;5039056;28;20509;-77
2023/10/04 07:30:01;;;;;;;3.63;1.88;;;12.30;99.90;;;;;;5038720;28;20030;-78
2023/10/04 07:32:28;;;;;;;4.78;2.53;;;12.30;99.90;;;;;;5038831;28;20032;-78
2023/10/04 07:34:54;;;;;;;4.40;2.00;;;12.40;99.90;;;;;;5038991;28;20034;-78
2023/10/04 07:37:20;;;;;;;4.38;2.30;;;12.50;99.90;;;;;;5038541;28;20032;-78
2023/10/04 07:39:46;;;;;;;5.18;2.20;;;12.50;99.90;;;;;;5038088;28;20383;-78
2023/10/04 07:42:12;;;;;;;5.47;2.33;;;12.60;99.90;;;;;;5038372;28;20095;-78
2023/10/04 07:44:38;;;;;;;5.57;2.03;;;12.60;99.90;;;;;;5021258;28;20029;-78
2023/10/04 07:47:04;;;;;;;6.07;2.70;;;12.60;99.90;;;;;;5038487;28;20386;-78
2023/10/04 07:49:31;;;;;;;5.53;2.75;;;12.60;99.90;;;;;;5038541;28;20029;-78
2023/10/04 07:51:58;;;;;;;5.13;2.20;;;12.60;99.90;;;;;;5037767;28;20053;-78
2023/10/04 07:54:24;;;;;;;4.80;2.58;;;12.70;99.90;;;;;;5038583;28;20021;-79
2023/10/04 07:56:49;;;;;;;5.68;2.55;;;12.70;99.90;;;;;;5020477;28;20026;-78
2023/10/04 07:59:17;;;;;;;7.07;3.00;;;12.70;99.90;;;;;;5020154;28;20075;-78
2023/10/04 08:01:43;;;;;;;5.63;2.80;;;12.80;99.90;;;;;;5036175;28;20029;-78
2023/10/04 08:04:09;;;;;;;5.13;2.55;;;12.80;99.90;;;;;;5037672;28;20505;-78
2023/10/04 08:06:39;;;;;;;5.97;2.22;;;12.80;99.90;;;;;;5037690;28;20080;-78
2023/10/04 08:09:05;;;;;;;4.03;2.10;;;12.90;99.90;;;;;;5060904;22;20342;-73
2023/10/04 08:11:34;;;;;;;4.97;2.63;;;13.00;99.90;;;;;;5034794;28;20041;-73
2023/10/04 08:14:01;;;;;;;5.25;2.35;;;13.10;99.90;;;;;;5034752;28;20026;-73
2023/10/04 08:16:30;;;;;;;5.13;2.20;;;13.20;99.90;;;;;;5015680;28;20549;-73
2023/10/04 08:18:56;;;;;;;6.82;2.45;;;13.30;99.90;;;;;;5014841;28;20026;-73
2023/10/04 08:21:23;;;;;;;5.00;2.30;;;13.40;99.90;;;;;;5015113;28;20033;-73
2023/10/04 08:23:49;;;;;;;4.68;2.22;;;13.50;99.90;;;;;;5015096;28;20041;-72
2023/10/04 08:26:16;;;;;;;5.30;2.28;;;13.70;99.90;;;;;;5014796;28;20101;-73
2023/10/04 08:28:42;;;;;;;5.13;2.17;;;13.70;99.90;;;;;;5014716;28;20041;-73
2023/10/04 08:31:09;;;;;;;4.93;2.30;;;13.70;99.90;;;;;;5014628;28;20062;-73
2023/10/04 08:33:35;;;;;;;7.00;2.40;;;13.70;99.90;;;;;;5014676;28;20026;-73
2023/10/04 08:36:08;;;;;;;4.22;2.00;;;13.70;99.90;;;;;;5014485;28;20037;-73
2023/10/04 08:38:34;;;;;;;4.15;1.95;;;13.70;99.90;;;;;;5014515;28;20037;-73
2023/10/04 08:41:01;;;;;;;5.72;2.50;;;13.70;99.90;;;;;;5014460;28;20498;-73
2023/10/04 08:43:29;;;;;;;5.72;2.72;;;13.80;99.90;;;;;;5014412;28;20510;-74
2023/10/04 08:45:56;;;;;;;4.95;2.50;;;13.80;99.90;;;;;;5014489;28;20053;-72
2023/10/04 08:48:25;;;;;;;6.85;2.50;;;13.90;99.90;;;;;;5014328;28;20053;-74
2023/10/04 08:51:02;;;;;;;5.65;2.20;;;13.90;99.90;;;;;;5014508;28;20038;-74
2023/10/04 08:53:53;;;;;;;7.40;2.53;;;14.00;99.90;;;;;;5014553;28;20022;-74
2023/10/04 08:56:19;;;;;;;5.30;2.40;;;14.00;99.90;;;;;;5015227;28;20021;-74
2023/10/04 08:58:46;;;;;;;5.50;2.60;;;14.10;99.90;;;;;;5014109;28;20030;-74
2023/10/04 09:01:19;;;;;;;5.35;2.58;;;14.10;99.90;;;;;;5014164;28;20030;-74
2023/10/04 09:03:47;;;;;;;6.97;2.42;;;14.20;99.90;;;;;;5014088;28;20034;-74
2023/10/04 09:06:17;;;;;;;7.68;2.63;;;14.30;99.90;;;;;;5013975;28;20026;-74
2023/10/04 09:08:44;;;;;;;5.82;2.22;;;14.40;99.90;;;;;;5014215;28;20049;-74
2023/10/04 09:11:11;;;;;;;5.85;2.95;;;14.40;99.90;;;;;;5013928;28;20022;-74
2023/10/04 09:13:52;;;;;;;5.85;2.25;;;14.40;99.90;;;;;;5013883;28;20026;-74
2023/10/04 09:16:18;;;;;;;;;;;14.50;99.90;;;;;;5014922;28;20022;-73
2023/10/04 09:18:44;;;;;;;4.80;2.75;;;14.50;99.90;;;;;;5014388;28;20303;-74
2023/10/04 09:21:16;;;;;;;6.05;2.60;;;14.50;99.90;;;;;;5013958;28;20030;-74
2023/10/04 09:23:46;;;;;;;5.93;2.60;;;14.60;99.90;;;;;;5026902;23;20039;-84
2023/10/04 09:26:16;;;;;;;5.32;2.25;;;14.60;99.90;;;;;;5017348;28;20022;-84
2023/10/04 09:28:42;;;;;;;7.45;2.28;;;14.60;99.90;;;;;;4999668;28;20056;-84
2023/10/04 09:31:12;;;;;;;6.30;2.40;;;14.70;99.90;;;;;;5015941;28;20508;-84
2023/10/04 09:33:39;;;;;;;4.05;2.10;;;14.80;99.90;;;;;;5016330;28;20025;-84
2023/10/04 09:36:04;;;;;;;4.40;2.15;;;14.70;99.90;;;;;;4999669;28;20040;-84
2023/10/04 09:38:31;;;;;;;4.32;1.98;;;14.70;99.90;;;;;;5017426;23;20047;-73
2023/10/04 09:40:59;;;;;;;8.07;2.88;;;14.60;99.90;;;;;;4974930;28;20031;-73
2023/10/04 09:43:32;;;;;;;6.78;2.38;;;14.60;99.90;;;;;;4974762;28;20030;-73
2023/10/04 09:45:58;;;;;;;6.25;2.20;;;14.60;99.90;;;;;;4974948;28;20426;-73
2023/10/04 09:48:30;;;;;;;6.15;2.33;;;14.60;99.90;;;;;;4974965;28;20106;-70
2023/10/04 09:51:05;;;;;;;8.95;2.05;;;14.60;99.90;;;;;;4975486;28;20043;-70
2023/10/04 09:53:31;;;;;;;5.25;2.03;;;14.60;99.90;;;;;;4975144;28;20015;-70
2023/10/04 09:56:02;;;;;;;6.05;1.60;;;14.70;99.90;;;;;;4974494;28;20085;-70
2023/10/04 09:58:32;;;;;;;3.90;1.90;;;14.70;99.90;;;;;;4974451;28;20054;-70
2023/10/04 10:01:11;;;;;;;6.78;1.80;;;14.70;99.90;;;;;;4974767;28;20494;-70
2023/10/04 10:03:50;;;;;;;3.72;1.73;;;14.70;99.90;;;;;;4974656;28;20031;-70
2023/10/04 10:06:21;;;;;;;3.53;1.80;;;14.70;99.90;;;;;;4974473;28;20078;-70
2023/10/04 10:08:52;;;;;;;4.55;1.90;;;14.80;99.90;;;;;;4974437;28;20030;-70
2023/10/04 10:11:19;;;;;;;3.55;1.60;;;14.70;99.90;;;;;;4974938;28;20023;-70
2023/10/04 10:13:46;;;;;;;4.00;1.60;;;14.70;99.90;;;;;;4973065;28;20038;-70
2023/10/04 10:16:12;;;;;;;3.67;1.90;;;14.60;99.90;;;;;;4974380;28;20034;-70
2023/10/04 10:18:39;;;;;;;3.67;1.67;;;14.60;99.90;;;;;;4973132;28;20019;-70
2023/10/04 10:21:06;;;;;;;4.00;1.88;;;14.60;99.90;;;;;;4973195;28;20050;-72
2023/10/04 10:23:57;;;;;;;4.22;1.80;;;14.60;99.90;;;;;;4973393;28;20030;-70
2023/10/04 10:26:23;;;;;;;7.63;2.33;;;14.60;99.90;;;;;;4978305;28;20030;-70
2023/10/04 10:28:58;;;;;;;3.58;2.08;;;14.60;99.90;;;;;;4977276;28;20057;-70
2023/10/04 10:31:26;;;;;;;5.30;2.10;;;14.60;99.90;;;;;;4978099;28;20486;-70
2023/10/04 10:33:55;;;;;;;5.63;2.25;;;14.70;99.90;;;;;;4977804;28;20030;-70
2023/10/04 10:36:23;;;;;;;4.20;1.95;;;14.70;99.90;;;;;;4977822;28;20391;-70
2023/10/04 10:38:54;;;;;;;3.47;1.70;;;14.70;99.90;;;;;;4977670;28;20466;-70
2023/10/04 10:41:29;;;;;;;3.58;1.77;;;14.80;99.90;;;;;;4976518;28;20035;-70
2023/10/04 10:44:13;;;;;;;4.72;2.00;;;14.90;99.90;;;;;;4977830;28;20550;-70
2023/10/04 10:47:07;;;;;;;3.55;1.73;;;15.10;99.90;;;;;;4976333;28;20030;-70
2023/10/04 10:49:52;;;;;;;3.97;1.63;;;15.20;99.90;;;;;;4977543;28;20034;-70
2023/10/04 10:52:31;;;;;;;4.55;1.60;;;15.40;99.90;;;;;;4976318;28;20487;-70
2023/10/04 10:55:01;;;;;;;6.22;2.15;;;15.40;99.90;;;;;;4977443;28;20026;-70
2023/10/04 10:57:28;;;;;;;3.92;1.92;;;15.50;99.90;;;;;;4977751;28;20077;-70
2023/10/04 10:59:56;;;;;;;3.78;1.77;;;15.50;99.90;;;;;;4977369;28;20105;-70
2023/10/04 11:02:23;;;;;;;4.53;2.08;;;15.60;99.90;;;;;;4977345;28;20521;-70
2023/10/04 11:04:50;;;;;;;3.08;1.50;;;15.60;99.90;;;;;;4977287;28;20050;-70
2023/10/04 11:07:23;;;;;;;2.65;1.30;;;15.70;99.90;;;;;;4977461;28;20031;-70
2023/10/04 11:09:53;;;;;;;3.53;1.40;;;15.70;99.90;;;;;;4977065;28;20026;-70
2023/10/04 11:12:24;;;;;;;3.58;1.60;;;15.80;99.90;;;;;;4977179;28;20022;-70
2023/10/04 11:14:51;;;;;;;3.40;1.60;;;16.00;99.90;;;;;;4977144;28;20023;-70
2023/10/04 11:17:18;;;;;;;3.40;1.45;;;16.10;99.90;;;;;;4977284;28;20042;-70
2023/10/04 11:19:44;;;;;;;3.92;1.42;;;16.20;99.90;;;;;;4977310;28;20033;-70
2023/10/04 11:22:14;;;;;;;3.03;1.35;;;16.30;99.90;;;;;;4975740;28;20237;-70
2023/10/04 11:24:41;;;;;;;2.67;1.20;;;16.50;99.90;;;;;;4977418;28;20487;-70
2023/10/04 11:27:08;;;;;;;3.75;1.77;;;16.60;99.90;;;;;;4977122;28;20042;-69
2023/10/04 11:29:34;;;;;;;3.67;1.60;;;16.50;99.90;;;;;;4975590;28;20050;-69
2023/10/04 11:32:01;;;;;;;2.67;1.45;;;16.60;99.90;;;;;;4976764;28;20022;-68
2023/10/04 11:34:27;;;;;;;3.90;1.40;;;16.60;99.90;;;;;;4976753;28;20098;-68
2023/10/04 11:37:00;;;;;;;3.08;1.48;;;16.70;99.90;;;;;;4975534;28;20089;-69
2023/10/04 11:39:33;;;;;;;3.10;1.42;;;16.80;99.90;;;;;;4976795;28;20039;-69
2023/10/04 11:42:03;;;;;;;6.43;1.50;;;17.00;99.90;;;;;;4976838;28;20056;-69
2023/10/04 11:44:34;;;;;;;3.13;1.50;;;17.10;99.90;;;;;;4976950;28;20023;-69
2023/10/04 11:47:04;;;;;;;3.83;1.63;;;17.20;99.90;;;;;;4975305;28;20023;-68
2023/10/04 11:49:33;;;;;;;5.68;1.88;;;17.30;99.90;;;;;;4976484;28;20031;-68
2023/10/04 11:52:04;;;;;;;4.00;1.40;;;17.30;99.90;;;;;;4976330;28;20038;-68
2023/10/04 11:54:40;;;;;;;5.93;2.20;;;17.30;99.90;;;;;;4975079;28;20475;-68
2023/10/04 11:57:08;;;;;;;4.97;2.20;;;17.30;99.90;;;;;;4975704;28;20037;-68
2023/10/04 11:59:34;;;;;;;5.85;2.42;;;17.40;99.90;;;;;;4976466;28;20051;-69
2023/10/04 12:02:00;;;;;;;7.20;2.08;;;17.50;99.90;;;;;;4976197;28;20034;-68
2023/10/04 12:04:31;;;;;;;3.30;1.95;;;17.50;99.90;;;;;;4976088;28;20076;-68
2023/10/04 12:07:09;;;;;;;6.45;2.35;;;17.60;99.90;;;;;;4976442;28;20065;-68
2023/10/04 12:09:36;;;;;;;5.07;1.80;;;17.70;99.90;;;;;;4976253;28;20499;-68
2023/10/04 12:12:04;;;;;;;3.65;1.90;;;17.70;99.90;;;;;;4976000;28;20173;-68
2023/10/04 12:14:34;;;;;;;4.85;2.03;;;17.60;99.90;;;;;;4975958;28;20031;-68
2023/10/04 12:17:04;;;;;;;3.25;1.60;;;17.50;99.90;;;;;;4975902;28;20383;-68
2023/10/04 12:19:34;;;;;;;3.72;1.92;;;17.50;99.90;;;;;;4975916;28;20030;-68
2023/10/04 12:22:02;;;;;;;4.05;1.65;;;17.60;99.90;;;;;;4974787;28;20031;-68
2023/10/04 12:24:32;;;;;;;3.83;1.50;;;17.70;99.90;;;;;;4975730;28;20039;-68
2023/10/04 12:27:01;;;;;;;3.17;1.60;;;17.80;99.90;;;;;;4975840;28;20111;-68
2023/10/04 12:29:30;;;;;;;4.53;1.63;;;17.90;99.90;;;;;;4974500;28;20043;-68
2023/10/04 12:31:56;;;;;;;4.72;2.08;;;18.00;99.90;;;;;;4975873;28;20379;-68
2023/10/04 12:34:24;;;;;;;4.05;1.58;;;18.00;99.90;;;;;;4975545;28;20426;-68
2023/10/04 12:36:51;;;;;;;2.67;1.40;;;17.90;99.90;;;;;;4975893;28;20031;-68
2023/10/04 12:39:17;;;;;;;4.38;1.80;;;17.90;99.90;;;;;;4975573;28;20039;-68
2023/10/04 12:41:45;;;;;;;5.13;1.90;;;17.90;99.90;;;;;;4975438;28;20031;-68
2023/10/04 12:44:12;;;;;;;4.63;2.40;;;17.80;99.90;;;;;;4975424;28;20030;-68
2023/10/04 12:46:39;;;;;;;6.25;2.05;;;17.80;99.90;;;;;;4973908;28;20031;-68
2023/10/04 12:49:07;;;;;;;7.00;2.17;;;17.70;99.90;;;;;;4975434;28;20046;-68
2023/10/04 12:51:33;;;;;;;6.35;2.08;;;17.70;99.90;;;;;;4975176;28;20026;-68
2023/10/04 12:53:59;;;;;;;5.07;2.30;;;17.70;99.90;;;;;;4975198;28;20034;-68
2023/10/04 12:56:26;;;;;;;4.10;1.88;;;17.80;99.90;;;;;;4975299;28;20364;-68
2023/10/04 12:58:52;;;;;;;4.35;1.90;;;17.90;99.90;;;;;;4973965;28;20038;-68
2023/10/04 13:01:18;;;;;;;4.65;2.10;;;18.10;99.90;;;;;;4975186;28;20387;-68